WPDL

Details ICAO WPDL (DIL)
Name Dili Presidente Nicolau Lobato Intl
Region Timor-Leste
Timezone Unknown (UTC+0.0)
Plans Departing 24
Arriving 33
Stats Elevation 25 ft / 8 m (AMSL)
Location -8.546553° 125.524721°
Runways 1
Magnetic Variation 1.511° E
Sunrise 2017-12-13 21:15:22 UTC / 2017-12-13 21:15:22 Local
Sunset 2017-12-14 09:52:16 UTC / 2017-12-14 09:52:16 Local
Advertisement - Login to hide

Runways

ID Width Length Bearing (true) Bearing (mag) Surface Threshold Offset Overrun Length
08 98 ft / 30 m 6,062 ft / 1,848 m 77.11° 75.60° Asphalt 201 ft / 61 m 100 ft / 30 m
26 98 ft / 30 m 6,062 ft / 1,848 m 257.11° 255.60° Asphalt 0 ft / 0 m 100 ft / 30 m

Map

Weather


0- 5 10 15 20 25 30 35+ Temperature / ° C

Clouds and Precipitation
Forecast for 2017-12-14 12:00 UTC. Updated an hour ago

Ground ~20,000 ft ~40,000 ft Winds

METAR

Not found

TAF

TAF AMD TAF AMD WPDL 140649Z 1406/1420 27010KT CAVOK FM141000 15006KT 9999 FEW030 INTER 1408/1412 VRB15G25KT 4000 SHRA SCT020 SCT040

Frequencies

Ground 133.90 MHz COMORO GND
Tower 122.90 MHz COMORO APP/TWR
Warning: Do not use this data for real-world aviation or navigation. No guarantee of current accuracy is given.